Avon, CO (81620)

8:02 PM MDT on August 31, 2016 (GMT -0600)
Whiskey Hill, EagleVail | | Change Station

Elev 7959 ft 39.61 °N, 106.48 °W | Updated 2 minutes ago

Scattered Clouds
Scattered Clouds
64.5 °F
Feels Like 64.5 °F
N
1.0
Wind Variable Wind from SSE
Gusts 1.0 mph

Today
High -- | Low -- °F
--% Chance of Precip.
Yesterday
High -- | Low -- °F
Precip. -- in
Pressure 30.21 in
Visibility 10.0 miles
Clouds Scattered Clouds 11000 ft
Dew Point 39 °F
Humidity 39%
Rainfall 0.00 in
Snow Depth Not available.
6:33 AM 7:37 PM
Waning Crescent, 0% visible
METAR KEGE 010155Z AUTO 20003KT 10SM SCT110 24/03 A3021 RMK AO1
Pressure 30.21 in
Visibility 10.0 miles
Clouds Scattered Clouds 11000 ft
Dew Point 39 °F
Humidity 39%
Rainfall 0.00 in
Snow Depth Not available.
6:33 AM 7:37 PM
Waning Crescent, 0% visible
METAR KEGE 010155Z AUTO 20003KT 10SM SCT110 24/03 A3021 RMK AO1

10-Day Weather Forecast

Almanac

Astronomy

Aug. 31, 2016 Rise Set
Actual Time
Civil Twilight
Nautical Twilight
Astronomical Twilight
Moon
Length of Visible Light
Length of Day
Tomorrow will be .
, % of the Moon is Illuminated

Today's Extremes

State Highs State Lows

Community

WunderPhotos

Upload Photos

1,936,268 photos uploaded!

WunderBlog® & News

Nearby

Air Quality

  Air Quality AQ Index Pollutant
Not available.

Snow Depth

Station Depth Elevation

Earthquake Activity

City Distance Mag. Time & Date
Minimum magnitude displayed is 2.5.

Coastal Water Temperatures

Place Temperature

Stations

Nearby Weather Stations

Station Location Temp. Windchill Dew Point Humidity Wind Precip. Elev Updated Type
                   

Watches & Warnings

There are currently no watches in effect.